sensor_id;sensor_type;location;lat;lon;timestamp;temperature;humidity
28959;DHT22;16066;0.000;0.000;2022-12-29T00:02:09;19.10;46.10
28959;DHT22;16066;0.000;0.000;2022-12-29T00:04:34;19.00;46.20
28959;DHT22;16066;0.000;0.000;2022-12-29T00:07:00;19.00;46.20
28959;DHT22;16066;0.000;0.000;2022-12-29T00:09:26;19.00;46.30
28959;DHT22;16066;0.000;0.000;2022-12-29T00:11:52;18.90;46.30
28959;DHT22;16066;0.000;0.000;2022-12-29T00:14:18;19.00;46.40
28959;DHT22;16066;0.000;0.000;2022-12-29T00:17:02;18.90;46.40
28959;DHT22;16066;0.000;0.000;2022-12-29T00:19:28;18.90;46.40
28959;DHT22;16066;0.000;0.000;2022-12-29T00:22:14;18.90;46.50
28959;DHT22;16066;0.000;0.000;2022-12-29T00:24:58;18.80;46.50
28959;DHT22;16066;0.000;0.000;2022-12-29T00:27:28;18.80;46.50
28959;DHT22;16066;0.000;0.000;2022-12-29T00:30:14;18.80;46.60
28959;DHT22;16066;0.000;0.000;2022-12-29T00:32:58;18.80;46.60
28959;DHT22;16066;0.000;0.000;2022-12-29T00:35:51;18.70;46.60
28959;DHT22;16066;0.000;0.000;2022-12-29T00:38:18;18.70;47.20
28959;DHT22;16066;0.000;0.000;2022-12-29T00:41:02;18.70;46.70
28959;DHT22;16066;0.000;0.000;2022-12-29T00:43:46;18.70;46.80
28959;DHT22;16066;0.000;0.000;2022-12-29T00:46:31;18.60;46.70
28959;DHT22;16066;0.000;0.000;2022-12-29T00:48:57;18.60;46.80
28959;DHT22;16066;0.000;0.000;2022-12-29T00:51:41;18.60;47.40
28959;DHT22;16066;0.000;0.000;2022-12-29T00:54:06;18.60;46.90
28959;DHT22;16066;0.000;0.000;2022-12-29T00:56:32;18.50;46.80
28959;DHT22;16066;0.000;0.000;2022-12-29T00:59:01;18.50;46.80
28959;DHT22;16066;0.000;0.000;2022-12-29T01:01:27;18.50;46.90
28959;DHT22;16066;0.000;0.000;2022-12-29T01:03:52;18.50;46.90
28959;DHT22;16066;0.000;0.000;2022-12-29T01:06:18;18.50;47.00
28959;DHT22;16066;0.000;0.000;2022-12-29T01:08:43;18.50;47.00
28959;DHT22;16066;0.000;0.000;2022-12-29T01:11:11;18.50;47.00
28959;DHT22;16066;0.000;0.000;2022-12-29T01:13:37;18.50;47.10
28959;DHT22;16066;0.000;0.000;2022-12-29T01:16:05;18.40;46.90
28959;DHT22;16066;0.000;0.000;2022-12-29T01:18:30;18.40;47.00
28959;DHT22;16066;0.000;0.000;2022-12-29T01:21:04;18.40;47.00
28959;DHT22;16066;0.000;0.000;2022-12-29T01:23:30;18.40;47.10
28959;DHT22;16066;0.000;0.000;2022-12-29T01:25:56;18.40;47.10
28959;DHT22;16066;0.000;0.000;2022-12-29T01:28:22;18.40;47.10
28959;DHT22;16066;0.000;0.000;2022-12-29T01:30:48;18.40;47.20
28959;DHT22;16066;0.000;0.000;2022-12-29T01:33:14;18.30;47.10
28959;DHT22;16066;0.000;0.000;2022-12-29T01:35:39;18.30;47.20
28959;DHT22;16066;0.000;0.000;2022-12-29T01:38:05;18.30;47.20
28959;DHT22;16066;0.000;0.000;2022-12-29T01:40:31;18.30;47.20
28959;DHT22;16066;0.000;0.000;2022-12-29T01:42:56;18.30;47.20
28959;DHT22;16066;0.000;0.000;2022-12-29T01:45:22;18.30;47.20
28959;DHT22;16066;0.000;0.000;2022-12-29T01:48:03;18.30;47.20
28959;DHT22;16066;0.000;0.000;2022-12-29T01:50:37;18.30;47.30
28959;DHT22;16066;0.000;0.000;2022-12-29T01:53:10;18.30;47.30
28959;DHT22;16066;0.000;0.000;2022-12-29T01:55:51;18.30;47.30
28959;DHT22;16066;0.000;0.000;2022-12-29T01:58:19;18.30;47.30
28959;DHT22;16066;0.000;0.000;2022-12-29T02:00:46;18.20;47.40
28959;DHT22;16066;0.000;0.000;2022-12-29T02:03:12;18.20;47.30
28959;DHT22;16066;0.000;0.000;2022-12-29T02:05:51;18.20;47.30
28959;DHT22;16066;0.000;0.000;2022-12-29T02:08:20;18.20;47.30
28959;DHT22;16066;0.000;0.000;2022-12-29T02:10:47;18.20;47.30
28959;DHT22;16066;0.000;0.000;2022-12-29T02:13:16;18.20;47.40
28959;DHT22;16066;0.000;0.000;2022-12-29T02:24:32;18.20;47.40
28959;DHT22;16066;0.000;0.000;2022-12-29T02:35:52;18.20;47.40
28959;DHT22;16066;0.000;0.000;2022-12-29T02:38:39;18.10;47.30
28959;DHT22;16066;0.000;0.000;2022-12-29T02:41:15;18.10;47.30
28959;DHT22;16066;0.000;0.000;2022-12-29T02:44:03;18.10;47.20
28959;DHT22;16066;0.000;0.000;2022-12-29T02:46:41;18.10;47.20
28959;DHT22;16066;0.000;0.000;2022-12-29T02:49:16;18.10;47.30
28959;DHT22;16066;0.000;0.000;2022-12-29T02:51:48;18.10;47.20
28959;DHT22;16066;0.000;0.000;2022-12-29T02:54:20;18.10;47.30
28959;DHT22;16066;0.000;0.000;2022-12-29T03:00:10;18.10;47.20
28959;DHT22;16066;0.000;0.000;2022-12-29T03:05:27;18.10;47.30
28959;DHT22;16066;0.000;0.000;2022-12-29T03:11:06;18.10;47.20
28959;DHT22;16066;0.000;0.000;2022-12-29T03:13:56;18.10;47.20
28959;DHT22;16066;0.000;0.000;2022-12-29T03:17:00;18.10;47.20
28959;DHT22;16066;0.000;0.000;2022-12-29T03:19:30;18.10;47.20
28959;DHT22;16066;0.000;0.000;2022-12-29T03:22:01;18.10;47.20
28959;DHT22;16066;0.000;0.000;2022-12-29T03:24:49;18.10;47.20
28959;DHT22;16066;0.000;0.000;2022-12-29T03:27:20;18.10;47.20
28959;DHT22;16066;0.000;0.000;2022-12-29T03:29:50;18.10;47.10
28959;DHT22;16066;0.000;0.000;2022-12-29T03:32:26;18.00;47.20
28959;DHT22;16066;0.000;0.000;2022-12-29T03:34:54;18.10;47.20
28959;DHT22;16066;0.000;0.000;2022-12-29T03:37:27;18.10;47.20
28959;DHT22;16066;0.000;0.000;2022-12-29T03:39:54;18.10;47.20
28959;DHT22;16066;0.000;0.000;2022-12-29T03:42:23;18.10;47.20
28959;DHT22;16066;0.000;0.000;2022-12-29T03:44:54;18.00;47.20
28959;DHT22;16066;0.000;0.000;2022-12-29T03:47:22;18.00;47.10
28959;DHT22;16066;0.000;0.000;2022-12-29T03:49:48;18.00;47.20
28959;DHT22;16066;0.000;0.000;2022-12-29T03:52:14;18.00;47.20
28959;DHT22;16066;0.000;0.000;2022-12-29T03:54:39;18.00;47.20
28959;DHT22;16066;0.000;0.000;2022-12-29T03:57:05;18.00;47.20
28959;DHT22;16066;0.000;0.000;2022-12-29T03:59:31;18.00;47.20
28959;DHT22;16066;0.000;0.000;2022-12-29T04:01:56;18.00;47.20
28959;DHT22;16066;0.000;0.000;2022-12-29T04:04:22;18.00;47.20
28959;DHT22;16066;0.000;0.000;2022-12-29T04:06:47;18.00;47.20
28959;DHT22;16066;0.000;0.000;2022-12-29T04:09:13;18.00;47.30
28959;DHT22;16066;0.000;0.000;2022-12-29T04:11:38;18.00;47.20
28959;DHT22;16066;0.000;0.000;2022-12-29T04:14:04;18.00;47.30
28959;DHT22;16066;0.000;0.000;2022-12-29T04:16:30;18.00;47.30
28959;DHT22;16066;0.000;0.000;2022-12-29T04:18:55;18.00;47.30
28959;DHT22;16066;0.000;0.000;2022-12-29T04:21:21;18.00;47.30
28959;DHT22;16066;0.000;0.000;2022-12-29T04:23:46;18.00;47.30
28959;DHT22;16066;0.000;0.000;2022-12-29T04:26:12;18.00;47.30
28959;DHT22;16066;0.000;0.000;2022-12-29T04:28:38;17.90;47.20
28959;DHT22;16066;0.000;0.000;2022-12-29T04:31:04;17.90;47.20
28959;DHT22;16066;0.000;0.000;2022-12-29T04:33:30;17.90;47.30
28959;DHT22;16066;0.000;0.000;2022-12-29T04:35:56;17.90;47.30
28959;DHT22;16066;0.000;0.000;2022-12-29T04:38:22;17.90;47.20
28959;DHT22;16066;0.000;0.000;2022-12-29T04:40:48;17.90;47.30
28959;DHT22;16066;0.000;0.000;2022-12-29T04:43:15;17.90;47.30
28959;DHT22;16066;0.000;0.000;2022-12-29T04:45:44;17.90;47.40
28959;DHT22;16066;0.000;0.000;2022-12-29T04:48:11;17.90;47.40
28959;DHT22;16066;0.000;0.000;2022-12-29T04:50:37;17.90;47.40
28959;DHT22;16066;0.000;0.000;2022-12-29T04:53:02;17.90;47.40
28959;DHT22;16066;0.000;0.000;2022-12-29T04:55:28;17.90;47.40
28959;DHT22;16066;0.000;0.000;2022-12-29T04:57:53;17.90;47.40
28959;DHT22;16066;0.000;0.000;2022-12-29T05:00:19;17.90;47.40
28959;DHT22;16066;0.000;0.000;2022-12-29T05:02:45;17.90;47.40
28959;DHT22;16066;0.000;0.000;2022-12-29T05:05:10;17.90;47.40
28959;DHT22;16066;0.000;0.000;2022-12-29T05:07:36;17.90;47.40
28959;DHT22;16066;0.000;0.000;2022-12-29T05:10:02;17.90;47.40
28959;DHT22;16066;0.000;0.000;2022-12-29T05:12:31;17.90;47.40
28959;DHT22;16066;0.000;0.000;2022-12-29T05:14:57;17.80;47.40
28959;DHT22;16066;0.000;0.000;2022-12-29T05:17:23;17.90;47.70
28959;DHT22;16066;0.000;0.000;2022-12-29T05:19:49;17.80;47.40
28959;DHT22;16066;0.000;0.000;2022-12-29T05:22:14;17.80;47.40
28959;DHT22;16066;0.000;0.000;2022-12-29T05:24:40;17.80;47.40
28959;DHT22;16066;0.000;0.000;2022-12-29T05:27:05;17.80;47.40
28959;DHT22;16066;0.000;0.000;2022-12-29T05:29:31;17.80;47.40
28959;DHT22;16066;0.000;0.000;2022-12-29T05:31:56;17.80;47.30
28959;DHT22;16066;0.000;0.000;2022-12-29T05:34:22;17.80;47.40
28959;DHT22;16066;0.000;0.000;2022-12-29T05:36:47;17.80;47.40
28959;DHT22;16066;0.000;0.000;2022-12-29T05:39:13;17.80;47.40
28959;DHT22;16066;0.000;0.000;2022-12-29T05:41:38;17.80;47.40
28959;DHT22;16066;0.000;0.000;2022-12-29T05:44:04;17.80;47.40
28959;DHT22;16066;0.000;0.000;2022-12-29T05:46:30;17.80;47.40
28959;DHT22;16066;0.000;0.000;2022-12-29T05:48:56;17.80;47.20
28959;DHT22;16066;0.000;0.000;2022-12-29T05:51:21;17.80;47.30
28959;DHT22;16066;0.000;0.000;2022-12-29T05:53:46;17.80;47.30
28959;DHT22;16066;0.000;0.000;2022-12-29T05:56:12;17.80;47.30
28959;DHT22;16066;0.000;0.000;2022-12-29T05:58:37;17.80;47.40
28959;DHT22;16066;0.000;0.000;2022-12-29T06:01:03;17.80;47.30
28959;DHT22;16066;0.000;0.000;2022-12-29T06:03:29;17.80;47.40
28959;DHT22;16066;0.000;0.000;2022-12-29T06:05:54;17.80;47.40
28959;DHT22;16066;0.000;0.000;2022-12-29T06:08:19;17.80;47.30
28959;DHT22;16066;0.000;0.000;2022-12-29T06:10:45;17.80;47.40
28959;DHT22;16066;0.000;0.000;2022-12-29T06:13:11;17.80;47.30
28959;DHT22;16066;0.000;0.000;2022-12-29T06:15:36;17.80;47.30
28959;DHT22;16066;0.000;0.000;2022-12-29T06:18:02;17.70;47.20
28959;DHT22;16066;0.000;0.000;2022-12-29T06:20:27;17.80;47.40
28959;DHT22;16066;0.000;0.000;2022-12-29T06:22:53;17.80;47.30
28959;DHT22;16066;0.000;0.000;2022-12-29T06:25:19;17.80;47.30
28959;DHT22;16066;0.000;0.000;2022-12-29T06:27:44;17.70;47.20
28959;DHT22;16066;0.000;0.000;2022-12-29T06:30:11;17.80;47.30
28959;DHT22;16066;0.000;0.000;2022-12-29T06:32:36;17.70;47.20
28959;DHT22;16066;0.000;0.000;2022-12-29T06:35:03;17.70;47.20
28959;DHT22;16066;0.000;0.000;2022-12-29T06:37:29;17.70;47.30
28959;DHT22;16066;0.000;0.000;2022-12-29T06:39:54;17.70;47.30
28959;DHT22;16066;0.000;0.000;2022-12-29T06:42:20;17.80;47.30
28959;DHT22;16066;0.000;0.000;2022-12-29T06:44:46;17.80;47.30
28959;DHT22;16066;0.000;0.000;2022-12-29T06:47:11;17.80;47.20
28959;DHT22;16066;0.000;0.000;2022-12-29T06:49:37;17.90;47.20
28959;DHT22;16066;0.000;0.000;2022-12-29T06:52:02;17.90;47.10
28959;DHT22;16066;0.000;0.000;2022-12-29T06:54:30;18.00;47.00
28959;DHT22;16066;0.000;0.000;2022-12-29T06:56:55;18.00;47.10
28959;DHT22;16066;0.000;0.000;2022-12-29T06:59:21;18.00;47.00
28959;DHT22;16066;0.000;0.000;2022-12-29T07:01:47;18.10;47.00
28959;DHT22;16066;0.000;0.000;2022-12-29T07:04:12;18.10;46.90
28959;DHT22;16066;0.000;0.000;2022-12-29T07:06:38;18.20;46.90
28959;DHT22;16066;0.000;0.000;2022-12-29T07:09:03;18.30;46.90
28959;DHT22;16066;0.000;0.000;2022-12-29T07:11:29;18.30;46.80
28959;DHT22;16066;0.000;0.000;2022-12-29T07:13:55;18.40;46.70
28959;DHT22;16066;0.000;0.000;2022-12-29T07:16:21;18.50;46.70
28959;DHT22;16066;0.000;0.000;2022-12-29T07:18:47;18.60;46.60
28959;DHT22;16066;0.000;0.000;2022-12-29T07:21:12;18.70;46.40
28959;DHT22;16066;0.000;0.000;2022-12-29T07:23:38;18.80;46.50
28959;DHT22;16066;0.000;0.000;2022-12-29T07:26:05;18.90;46.50
28959;DHT22;16066;0.000;0.000;2022-12-29T07:28:31;19.00;46.20
28959;DHT22;16066;0.000;0.000;2022-12-29T07:30:58;19.10;46.00
28959;DHT22;16066;0.000;0.000;2022-12-29T07:33:23;19.10;46.00
28959;DHT22;16066;0.000;0.000;2022-12-29T07:35:49;19.20;46.00
28959;DHT22;16066;0.000;0.000;2022-12-29T07:38:15;19.40;46.00
28959;DHT22;16066;0.000;0.000;2022-12-29T07:40:42;19.50;45.90
28959;DHT22;16066;0.000;0.000;2022-12-29T07:43:07;19.50;46.00
28959;DHT22;16066;0.000;0.000;2022-12-29T07:45:33;19.60;45.70
28959;DHT22;16066;0.000;0.000;2022-12-29T07:47:58;19.70;45.70
28959;DHT22;16066;0.000;0.000;2022-12-29T07:50:24;19.70;45.50
28959;DHT22;16066;0.000;0.000;2022-12-29T07:52:49;19.80;45.60
28959;DHT22;16066;0.000;0.000;2022-12-29T07:55:16;19.80;45.40
28959;DHT22;16066;0.000;0.000;2022-12-29T07:57:41;19.90;45.40
28959;DHT22;16066;0.000;0.000;2022-12-29T08:00:07;19.90;45.30
28959;DHT22;16066;0.000;0.000;2022-12-29T08:02:33;19.90;45.90
28959;DHT22;16066;0.000;0.000;2022-12-29T08:04:58;20.00;45.20
28959;DHT22;16066;0.000;0.000;2022-12-29T08:07:24;20.00;45.20
28959;DHT22;16066;0.000;0.000;2022-12-29T08:09:49;20.00;45.20
28959;DHT22;16066;0.000;0.000;2022-12-29T08:12:15;19.90;45.10
28959;DHT22;16066;0.000;0.000;2022-12-29T08:14:40;20.00;45.00
28959;DHT22;16066;0.000;0.000;2022-12-29T08:17:06;19.90;44.90
28959;DHT22;16066;0.000;0.000;2022-12-29T08:19:31;20.00;44.90
28959;DHT22;16066;0.000;0.000;2022-12-29T08:21:57;20.00;45.50
28959;DHT22;16066;0.000;0.000;2022-12-29T08:24:22;20.00;44.90
28959;DHT22;16066;0.000;0.000;2022-12-29T08:26:48;20.00;45.10
28959;DHT22;16066;0.000;0.000;2022-12-29T08:29:13;20.00;45.30
28959;DHT22;16066;0.000;0.000;2022-12-29T08:31:39;20.00;46.00
28959;DHT22;16066;0.000;0.000;2022-12-29T08:34:04;20.00;46.10
28959;DHT22;16066;0.000;0.000;2022-12-29T08:36:31;20.00;46.10
28959;DHT22;16066;0.000;0.000;2022-12-29T08:38:57;20.00;45.50
28959;DHT22;16066;0.000;0.000;2022-12-29T08:41:22;19.90;45.10
28959;DHT22;16066;0.000;0.000;2022-12-29T08:43:49;19.90;45.30
28959;DHT22;16066;0.000;0.000;2022-12-29T08:46:15;19.90;45.20
28959;DHT22;16066;0.000;0.000;2022-12-29T08:48:40;19.90;45.40
28959;DHT22;16066;0.000;0.000;2022-12-29T08:51:06;19.90;45.60
28959;DHT22;16066;0.000;0.000;2022-12-29T08:53:33;19.90;45.60
28959;DHT22;16066;0.000;0.000;2022-12-29T08:55:59;19.90;45.60
28959;DHT22;16066;0.000;0.000;2022-12-29T08:58:26;19.90;45.60
28959;DHT22;16066;0.000;0.000;2022-12-29T09:00:56;19.90;45.60
28959;DHT22;16066;0.000;0.000;2022-12-29T09:03:23;19.90;45.60
28959;DHT22;16066;0.000;0.000;2022-12-29T09:05:50;19.90;45.60
28959;DHT22;16066;0.000;0.000;2022-12-29T09:08:16;19.80;45.70
28959;DHT22;16066;0.000;0.000;2022-12-29T09:10:42;19.80;46.00
28959;DHT22;16066;0.000;0.000;2022-12-29T09:13:08;19.90;45.90
28959;DHT22;16066;0.000;0.000;2022-12-29T09:15:33;19.90;46.00
28959;DHT22;16066;0.000;0.000;2022-12-29T09:17:59;19.90;46.30
28959;DHT22;16066;0.000;0.000;2022-12-29T09:20:24;19.90;46.30
28959;DHT22;16066;0.000;0.000;2022-12-29T09:22:50;19.90;46.50
28959;DHT22;16066;0.000;0.000;2022-12-29T09:25:16;19.90;46.60
28959;DHT22;16066;0.000;0.000;2022-12-29T09:27:41;19.90;47.20
28959;DHT22;16066;0.000;0.000;2022-12-29T09:30:10;19.90;46.60
28959;DHT22;16066;0.000;0.000;2022-12-29T09:32:36;19.90;46.50
28959;DHT22;16066;0.000;0.000;2022-12-29T09:35:01;19.90;46.50
28959;DHT22;16066;0.000;0.000;2022-12-29T09:37:27;19.90;46.60
28959;DHT22;16066;0.000;0.000;2022-12-29T09:39:53;19.80;46.40
28959;DHT22;16066;0.000;0.000;2022-12-29T09:42:50;19.80;46.50
28959;DHT22;16066;0.000;0.000;2022-12-29T09:45:29;19.80;46.30
28959;DHT22;16066;0.000;0.000;2022-12-29T09:47:57;19.70;46.20
28959;DHT22;16066;0.000;0.000;2022-12-29T09:50:30;19.70;46.20
28959;DHT22;16066;0.000;0.000;2022-12-29T09:53:18;19.70;46.20
28959;DHT22;16066;0.000;0.000;2022-12-29T09:55:49;19.70;46.10
28959;DHT22;16066;0.000;0.000;2022-12-29T10:01:05;19.60;46.00
28959;DHT22;16066;0.000;0.000;2022-12-29T10:06:19;19.60;46.00
28959;DHT22;16066;0.000;0.000;2022-12-29T10:15:03;19.50;45.70
28959;DHT22;16066;0.000;0.000;2022-12-29T10:25:41;19.50;45.60
28959;DHT22;16066;0.000;0.000;2022-12-29T10:28:21;19.50;45.50
28959;DHT22;16066;0.000;0.000;2022-12-29T10:30:49;19.50;45.40
28959;DHT22;16066;0.000;0.000;2022-12-29T10:33:21;19.50;45.60
28959;DHT22;16066;0.000;0.000;2022-12-29T10:35:49;19.50;45.60
28959;DHT22;16066;0.000;0.000;2022-12-29T10:38:27;19.50;45.50
28959;DHT22;16066;0.000;0.000;2022-12-29T10:41:02;19.40;45.40
28959;DHT22;16066;0.000;0.000;2022-12-29T10:43:48;19.40;45.40
28959;DHT22;16066;0.000;0.000;2022-12-29T10:46:28;19.40;45.30
28959;DHT22;16066;0.000;0.000;2022-12-29T10:48:54;19.40;45.50
28959;DHT22;16066;0.000;0.000;2022-12-29T10:51:30;19.50;45.80
28959;DHT22;16066;0.000;0.000;2022-12-29T10:54:17;19.50;45.80
28959;DHT22;16066;0.000;0.000;2022-12-29T10:56:51;19.50;45.90
28959;DHT22;16066;0.000;0.000;2022-12-29T10:59:28;19.50;45.90
28959;DHT22;16066;0.000;0.000;2022-12-29T11:04:54;19.50;45.90
28959;DHT22;16066;0.000;0.000;2022-12-29T11:07:23;19.50;45.90
28959;DHT22;16066;0.000;0.000;2022-12-29T11:09:49;19.50;45.80
28959;DHT22;16066;0.000;0.000;2022-12-29T11:12:26;19.50;45.80
28959;DHT22;16066;0.000;0.000;2022-12-29T11:18:17;19.50;45.80
28959;DHT22;16066;0.000;0.000;2022-12-29T11:20:38;19.50;45.70
28959;DHT22;16066;0.000;0.000;2022-12-29T11:23:31;19.50;45.60
28959;DHT22;16066;0.000;0.000;2022-12-29T11:26:25;19.50;45.70
28959;DHT22;16066;0.000;0.000;2022-12-29T11:31:50;19.50;45.90
28959;DHT22;16066;0.000;0.000;2022-12-29T11:34:24;19.50;45.90
28959;DHT22;16066;0.000;0.000;2022-12-29T11:36:53;19.50;45.90
28959;DHT22;16066;0.000;0.000;2022-12-29T11:40:17;19.50;45.90
28959;DHT22;16066;0.000;0.000;2022-12-29T11:42:23;19.50;45.90
28959;DHT22;16066;0.000;0.000;2022-12-29T11:44:55;19.50;45.70
28959;DHT22;16066;0.000;0.000;2022-12-29T11:47:29;19.50;45.80
28959;DHT22;16066;0.000;0.000;2022-12-29T11:50:01;19.50;45.80
28959;DHT22;16066;0.000;0.000;2022-12-29T11:52:31;19.50;45.80
28959;DHT22;16066;0.000;0.000;2022-12-29T11:54:59;19.50;45.70
28959;DHT22;16066;0.000;0.000;2022-12-29T11:57:27;19.50;45.70
28959;DHT22;16066;0.000;0.000;2022-12-29T11:59:54;19.50;45.60
28959;DHT22;16066;0.000;0.000;2022-12-29T12:02:44;19.50;45.60
28959;DHT22;16066;0.000;0.000;2022-12-29T12:05:16;19.50;45.80
28959;DHT22;16066;0.000;0.000;2022-12-29T12:08:01;19.50;45.60
28959;DHT22;16066;0.000;0.000;2022-12-29T12:10:43;19.50;45.50
28959;DHT22;16066;0.000;0.000;2022-12-29T12:13:21;19.50;45.60
28959;DHT22;16066;0.000;0.000;2022-12-29T12:16:13;19.50;45.60
28959;DHT22;16066;0.000;0.000;2022-12-29T12:18:50;19.50;45.60
28959;DHT22;16066;0.000;0.000;2022-12-29T12:21:38;19.50;45.60
28959;DHT22;16066;0.000;0.000;2022-12-29T12:27:20;19.50;45.70
28959;DHT22;16066;0.000;0.000;2022-12-29T12:30:23;19.50;45.60
28959;DHT22;16066;0.000;0.000;2022-12-29T12:35:21;19.50;45.50
28959;DHT22;16066;0.000;0.000;2022-12-29T12:38:05;19.50;45.50
28959;DHT22;16066;0.000;0.000;2022-12-29T12:48:54;19.50;45.40
28959;DHT22;16066;0.000;0.000;2022-12-29T13:00:03;19.50;45.40
28959;DHT22;16066;0.000;0.000;2022-12-29T13:05:31;19.50;45.50
28959;DHT22;16066;0.000;0.000;2022-12-29T13:24:23;19.50;45.50
28959;DHT22;16066;0.000;0.000;2022-12-29T13:27:01;19.50;45.50
28959;DHT22;16066;0.000;0.000;2022-12-29T13:32:23;19.50;45.40
28959;DHT22;16066;0.000;0.000;2022-12-29T13:37:55;19.60;45.40
28959;DHT22;16066;0.000;0.000;2022-12-29T13:40:24;19.60;45.40
28959;DHT22;16066;0.000;0.000;2022-12-29T13:42:52;19.70;45.40
28959;DHT22;16066;0.000;0.000;2022-12-29T13:45:24;19.80;45.50
28959;DHT22;16066;0.000;0.000;2022-12-29T13:47:57;19.80;45.50
28959;DHT22;16066;0.000;0.000;2022-12-29T13:50:27;19.80;45.20
28959;DHT22;16066;0.000;0.000;2022-12-29T13:55:42;19.90;45.20
28959;DHT22;16066;0.000;0.000;2022-12-29T14:01:22;19.90;45.00
28959;DHT22;16066;0.000;0.000;2022-12-29T14:03:51;19.90;45.20
28959;DHT22;16066;0.000;0.000;2022-12-29T14:06:31;19.90;45.30
28959;DHT22;16066;0.000;0.000;2022-12-29T14:09:02;19.90;45.40
28959;DHT22;16066;0.000;0.000;2022-12-29T14:11:33;19.90;45.30
28959;DHT22;16066;0.000;0.000;2022-12-29T14:14:10;20.00;45.30
28959;DHT22;16066;0.000;0.000;2022-12-29T14:16:37;20.00;45.20
28959;DHT22;16066;0.000;0.000;2022-12-29T14:19:16;20.00;45.00
28959;DHT22;16066;0.000;0.000;2022-12-29T14:22:00;20.00;44.90
28959;DHT22;16066;0.000;0.000;2022-12-29T14:24:44;20.00;44.80
28959;DHT22;16066;0.000;0.000;2022-12-29T14:32:36;19.90;44.90
28959;DHT22;16066;0.000;0.000;2022-12-29T14:35:41;19.90;45.00
28959;DHT22;16066;0.000;0.000;2022-12-29T14:38:27;19.90;45.00
28959;DHT22;16066;0.000;0.000;2022-12-29T14:41:17;19.80;45.10
28959;DHT22;16066;0.000;0.000;2022-12-29T14:44:11;19.80;45.10
28959;DHT22;16066;0.000;0.000;2022-12-29T14:49:16;19.80;45.00
28959;DHT22;16066;0.000;0.000;2022-12-29T14:51:42;19.70;45.00
28959;DHT22;16066;0.000;0.000;2022-12-29T14:57:03;19.70;45.00
28959;DHT22;16066;0.000;0.000;2022-12-29T14:59:30;19.70;44.90
28959;DHT22;16066;0.000;0.000;2022-12-29T15:01:58;19.70;44.90
28959;DHT22;16066;0.000;0.000;2022-12-29T15:04:27;19.70;45.00
28959;DHT22;16066;0.000;0.000;2022-12-29T15:06:55;19.70;45.50
28959;DHT22;16066;0.000;0.000;2022-12-29T15:09:29;19.70;44.90
28959;DHT22;16066;0.000;0.000;2022-12-29T15:12:01;19.70;44.90
28959;DHT22;16066;0.000;0.000;2022-12-29T15:14:36;19.70;44.80
28959;DHT22;16066;0.000;0.000;2022-12-29T15:17:09;19.70;44.70
28959;DHT22;16066;0.000;0.000;2022-12-29T15:19:36;19.70;44.60
28959;DHT22;16066;0.000;0.000;2022-12-29T15:22:02;19.70;44.80
28959;DHT22;16066;0.000;0.000;2022-12-29T15:24:28;19.70;44.70
28959;DHT22;16066;0.000;0.000;2022-12-29T15:26:54;19.70;44.70
28959;DHT22;16066;0.000;0.000;2022-12-29T15:32:00;19.70;44.60
28959;DHT22;16066;0.000;0.000;2022-12-29T15:34:30;19.70;44.60
28959;DHT22;16066;0.000;0.000;2022-12-29T15:36:55;19.70;44.50
28959;DHT22;16066;0.000;0.000;2022-12-29T15:39:29;19.70;44.60
28959;DHT22;16066;0.000;0.000;2022-12-29T15:42:00;19.70;44.60
28959;DHT22;16066;0.000;0.000;2022-12-29T15:44:41;19.70;44.60
28959;DHT22;16066;0.000;0.000;2022-12-29T15:47:20;19.70;44.50
28959;DHT22;16066;0.000;0.000;2022-12-29T15:49:57;19.70;44.40
28959;DHT22;16066;0.000;0.000;2022-12-29T15:52:24;19.70;44.50
28959;DHT22;16066;0.000;0.000;2022-12-29T15:54:52;19.70;44.50
28959;DHT22;16066;0.000;0.000;2022-12-29T15:57:27;19.70;44.50
28959;DHT22;16066;0.000;0.000;2022-12-29T15:59:53;19.70;45.00
28959;DHT22;16066;0.000;0.000;2022-12-29T16:02:21;19.70;44.50
28959;DHT22;16066;0.000;0.000;2022-12-29T16:04:48;19.70;44.50
28959;DHT22;16066;0.000;0.000;2022-12-29T16:07:27;19.70;44.60
28959;DHT22;16066;0.000;0.000;2022-12-29T16:09:58;19.70;44.50
28959;DHT22;16066;0.000;0.000;2022-12-29T16:12:29;19.70;44.40
28959;DHT22;16066;0.000;0.000;2022-12-29T16:14:58;19.70;44.30
28959;DHT22;16066;0.000;0.000;2022-12-29T16:17:27;19.70;44.30
28959;DHT22;16066;0.000;0.000;2022-12-29T16:22:39;19.70;44.40
28959;DHT22;16066;0.000;0.000;2022-12-29T16:25:28;19.70;44.30
28959;DHT22;16066;0.000;0.000;2022-12-29T16:27:57;19.70;44.40
28959;DHT22;16066;0.000;0.000;2022-12-29T16:30:29;19.70;44.30
28959;DHT22;16066;0.000;0.000;2022-12-29T16:32:57;19.70;44.30
28959;DHT22;16066;0.000;0.000;2022-12-29T16:38:17;19.80;44.30
28959;DHT22;16066;0.000;0.000;2022-12-29T16:40:57;19.80;44.20
28959;DHT22;16066;0.000;0.000;2022-12-29T16:43:43;19.80;44.10
28959;DHT22;16066;0.000;0.000;2022-12-29T16:46:18;19.80;44.10
28959;DHT22;16066;0.000;0.000;2022-12-29T16:48:52;19.80;44.20
28959;DHT22;16066;0.000;0.000;2022-12-29T16:51:29;19.90;44.40
28959;DHT22;16066;0.000;0.000;2022-12-29T16:53:55;19.90;44.30
28959;DHT22;16066;0.000;0.000;2022-12-29T16:56:24;19.90;44.30
28959;DHT22;16066;0.000;0.000;2022-12-29T16:58:58;19.90;44.20
28959;DHT22;16066;0.000;0.000;2022-12-29T17:01:24;19.90;44.20
28959;DHT22;16066;0.000;0.000;2022-12-29T17:03:53;19.90;44.10
28959;DHT22;16066;0.000;0.000;2022-12-29T17:06:20;19.90;44.10
28959;DHT22;16066;0.000;0.000;2022-12-29T17:08:47;19.90;44.20
28959;DHT22;16066;0.000;0.000;2022-12-29T17:16:43;19.90;44.40
28959;DHT22;16066;0.000;0.000;2022-12-29T17:19:15;20.00;44.40
28959;DHT22;16066;0.000;0.000;2022-12-29T17:21:41;20.00;44.40
28959;DHT22;16066;0.000;0.000;2022-12-29T17:24:17;20.00;44.30
28959;DHT22;16066;0.000;0.000;2022-12-29T17:26:45;20.00;44.20
28959;DHT22;16066;0.000;0.000;2022-12-29T17:29:33;20.00;44.70
28959;DHT22;16066;0.000;0.000;2022-12-29T17:32:00;20.00;44.10
28959;DHT22;16066;0.000;0.000;2022-12-29T17:34:26;20.00;44.20
28959;DHT22;16066;0.000;0.000;2022-12-29T17:36:52;20.00;44.20
28959;DHT22;16066;0.000;0.000;2022-12-29T17:39:18;20.00;44.30
28959;DHT22;16066;0.000;0.000;2022-12-29T17:41:44;20.00;44.30
28959;DHT22;16066;0.000;0.000;2022-12-29T17:44:15;20.00;44.50
28959;DHT22;16066;0.000;0.000;2022-12-29T17:46:42;20.00;44.40
28959;DHT22;16066;0.000;0.000;2022-12-29T17:49:12;20.00;44.40
28959;DHT22;16066;0.000;0.000;2022-12-29T17:51:39;20.00;44.40
28959;DHT22;16066;0.000;0.000;2022-12-29T17:54:04;20.00;44.30
28959;DHT22;16066;0.000;0.000;2022-12-29T17:56:30;20.00;44.10
28959;DHT22;16066;0.000;0.000;2022-12-29T17:58:55;20.00;44.00
28959;DHT22;16066;0.000;0.000;2022-12-29T18:01:21;20.00;44.20
28959;DHT22;16066;0.000;0.000;2022-12-29T18:03:50;20.00;44.10
28959;DHT22;16066;0.000;0.000;2022-12-29T18:06:16;20.00;43.80
28959;DHT22;16066;0.000;0.000;2022-12-29T18:08:41;20.00;43.70
28959;DHT22;16066;0.000;0.000;2022-12-29T18:11:20;20.00;43.40
28959;DHT22;16066;0.000;0.000;2022-12-29T18:13:46;20.00;43.40
28959;DHT22;16066;0.000;0.000;2022-12-29T18:16:12;20.00;43.80
28959;DHT22;16066;0.000;0.000;2022-12-29T18:18:38;20.10;44.10